sensor_id;sensor_type;location;lat;lon;timestamp;pressure;altitude;pressure_sealevel;temperature;humidity
62544;BME280;48597;49.030;1.822;2023-01-25T00:00:17;102667.91;;;20.58;33.03
62544;BME280;48597;49.030;1.822;2023-01-25T00:02:42;102670.78;;;20.61;33.00
62544;BME280;48597;49.030;1.822;2023-01-25T00:05:08;102674.88;;;20.60;33.18
62544;BME280;48597;49.030;1.822;2023-01-25T00:07:33;102672.41;;;20.59;33.17
62544;BME280;48597;49.030;1.822;2023-01-25T00:09:58;102669.97;;;20.61;33.03
62544;BME280;48597;49.030;1.822;2023-01-25T00:12:24;102660.97;;;20.62;33.07
62544;BME280;48597;49.030;1.822;2023-01-25T00:14:49;102661.78;;;20.63;33.04
62544;BME280;48597;49.030;1.822;2023-01-25T00:17:15;102667.47;;;20.66;33.08
62544;BME280;48597;49.030;1.822;2023-01-25T00:19:40;102660.94;;;20.66;33.01
62544;BME280;48597;49.030;1.822;2023-01-25T00:22:06;102667.88;;;20.68;33.32
62544;BME280;48597;49.030;1.822;2023-01-25T00:24:31;102667.47;;;20.70;33.07
62544;BME280;48597;49.030;1.822;2023-01-25T00:26:56;102666.66;;;20.69;32.96
62544;BME280;48597;49.030;1.822;2023-01-25T00:29:22;102668.31;;;20.71;32.96
62544;BME280;48597;49.030;1.822;2023-01-25T00:34:43;102662.97;;;20.69;33.09
62544;BME280;48597;49.030;1.822;2023-01-25T00:37:13;102655.19;;;20.69;33.13
62544;BME280;48597;49.030;1.822;2023-01-25T00:39:42;102651.94;;;20.67;33.00
62544;BME280;48597;49.030;1.822;2023-01-25T00:42:12;102665.44;;;20.67;33.08
62544;BME280;48597;49.030;1.822;2023-01-25T00:44:38;102656.03;;;20.66;32.97
62544;BME280;48597;49.030;1.822;2023-01-25T00:47:04;102660.94;;;20.66;33.03
62544;BME280;48597;49.030;1.822;2023-01-25T00:49:30;102655.19;;;20.66;33.31
62544;BME280;48597;49.030;1.822;2023-01-25T00:51:57;102653.16;;;20.66;32.88
62544;BME280;48597;49.030;1.822;2023-01-25T00:54:23;102652.75;;;20.64;33.04
62544;BME280;48597;49.030;1.822;2023-01-25T00:56:49;102647.00;;;20.64;32.99
62544;BME280;48597;49.030;1.822;2023-01-25T00:59:16;102649.47;;;20.66;32.96
62544;BME280;48597;49.030;1.822;2023-01-25T01:01:42;102647.00;;;20.68;33.06
62544;BME280;48597;49.030;1.822;2023-01-25T01:04:08;102653.56;;;20.68;32.92
62544;BME280;48597;49.030;1.822;2023-01-25T01:06:39;102652.34;;;20.69;32.87
62544;BME280;48597;49.030;1.822;2023-01-25T01:09:07;102648.66;;;20.69;32.83
62544;BME280;48597;49.030;1.822;2023-01-25T01:11:35;102637.19;;;20.73;32.90
62544;BME280;48597;49.030;1.822;2023-01-25T01:14:00;102638.81;;;20.74;32.96
62544;BME280;48597;49.030;1.822;2023-01-25T01:16:26;102640.06;;;20.73;33.00
62544;BME280;48597;49.030;1.822;2023-01-25T01:18:51;102639.63;;;20.74;32.75
62544;BME280;48597;49.030;1.822;2023-01-25T01:21:17;102635.13;;;20.73;32.72
62544;BME280;48597;49.030;1.822;2023-01-25T01:23:42;102638.00;;;20.77;32.66
62544;BME280;48597;49.030;1.822;2023-01-25T01:26:10;102634.31;;;20.76;32.95
62544;BME280;48597;49.030;1.822;2023-01-25T01:28:36;102642.06;;;20.79;32.72
62544;BME280;48597;49.030;1.822;2023-01-25T01:31:05;102641.69;;;20.77;32.87
62544;BME280;48597;49.030;1.822;2023-01-25T01:33:31;102644.94;;;20.79;32.79
62544;BME280;48597;49.030;1.822;2023-01-25T01:35:56;102645.34;;;20.81;32.80
62544;BME280;48597;49.030;1.822;2023-01-25T01:38:22;102648.59;;;20.83;32.79
62544;BME280;48597;49.030;1.822;2023-01-25T01:40:48;102649.84;;;20.82;32.80
62544;BME280;48597;49.030;1.822;2023-01-25T01:43:17;102651.88;;;20.82;32.93
62544;BME280;48597;49.030;1.822;2023-01-25T01:50:59;102665.81;;;20.87;32.63
62544;BME280;48597;49.030;1.822;2023-01-25T01:53:26;102669.47;;;20.87;32.62
62544;BME280;48597;49.030;1.822;2023-01-25T01:55:55;102667.44;;;20.88;32.86
62544;BME280;48597;49.030;1.822;2023-01-25T01:58:23;102664.56;;;20.88;32.88
62544;BME280;48597;49.030;1.822;2023-01-25T02:00:49;102665.81;;;20.87;32.96
62544;BME280;48597;49.030;1.822;2023-01-25T02:03:15;102665.38;;;20.85;32.91
62544;BME280;48597;49.030;1.822;2023-01-25T02:05:59;102669.06;;;20.85;32.77
62544;BME280;48597;49.030;1.822;2023-01-25T02:10:54;102674.00;;;20.81;32.71
62544;BME280;48597;49.030;1.822;2023-01-25T02:13:20;102674.00;;;20.81;32.80
62544;BME280;48597;49.030;1.822;2023-01-25T02:15:48;102676.44;;;20.79;32.89
62544;BME280;48597;49.030;1.822;2023-01-25T02:18:15;102673.59;;;20.79;32.86
62544;BME280;48597;49.030;1.822;2023-01-25T02:20:44;102679.72;;;20.78;32.80
62544;BME280;48597;49.030;1.822;2023-01-25T02:23:30;102677.31;;;20.76;32.78
62544;BME280;48597;49.030;1.822;2023-01-25T02:26:00;102670.75;;;20.76;32.87
62544;BME280;48597;49.030;1.822;2023-01-25T02:28:40;102678.13;;;20.73;32.97
62544;BME280;48597;49.030;1.822;2023-01-25T02:31:08;102679.75;;;20.74;32.97
62544;BME280;48597;49.030;1.822;2023-01-25T02:33:33;102677.31;;;20.73;32.93
62544;BME280;48597;49.030;1.822;2023-01-25T02:38:44;102674.44;;;20.73;32.99
62544;BME280;48597;49.030;1.822;2023-01-25T02:41:16;102678.13;;;20.73;32.92
62544;BME280;48597;49.030;1.822;2023-01-25T02:43:42;102673.22;;;20.74;32.88
62544;BME280;48597;49.030;1.822;2023-01-25T02:46:28;102670.75;;;20.76;32.97
62544;BME280;48597;49.030;1.822;2023-01-25T02:48:55;102672.38;;;20.77;32.70
62544;BME280;48597;49.030;1.822;2023-01-25T02:51:22;102662.53;;;20.78;32.71
62544;BME280;48597;49.030;1.822;2023-01-25T02:53:48;102660.06;;;20.80;32.81
62544;BME280;48597;49.030;1.822;2023-01-25T02:56:14;102670.72;;;20.79;32.86
62544;BME280;48597;49.030;1.822;2023-01-25T02:58:40;102664.16;;;20.82;32.77
62544;BME280;48597;49.030;1.822;2023-01-25T03:03:31;102666.22;;;20.85;32.66
62544;BME280;48597;49.030;1.822;2023-01-25T03:05:56;102669.47;;;20.87;32.54
62544;BME280;48597;49.030;1.822;2023-01-25T03:08:21;102669.47;;;20.87;32.77
62544;BME280;48597;49.030;1.822;2023-01-25T03:10:47;102656.78;;;20.88;32.64
62544;BME280;48597;49.030;1.822;2023-01-25T03:13:12;102663.34;;;20.89;32.61
62544;BME280;48597;49.030;1.822;2023-01-25T03:15:37;102662.47;;;20.92;32.67
62544;BME280;48597;49.030;1.822;2023-01-25T03:18:04;102665.34;;;20.92;32.70
62544;BME280;48597;49.030;1.822;2023-01-25T03:20:29;102664.53;;;20.91;32.65
62544;BME280;48597;49.030;1.822;2023-01-25T03:22:55;102667.41;;;20.95;32.69
62544;BME280;48597;49.030;1.822;2023-01-25T03:25:20;102658.78;;;20.95;32.58
62544;BME280;48597;49.030;1.822;2023-01-25T03:27:46;102654.28;;;20.94;32.49
62544;BME280;48597;49.030;1.822;2023-01-25T03:30:11;102660.44;;;20.92;32.49
62544;BME280;48597;49.030;1.822;2023-01-25T03:32:36;102646.94;;;20.93;32.53
62544;BME280;48597;49.030;1.822;2023-01-25T03:35:02;102649.38;;;20.91;32.63
62544;BME280;48597;49.030;1.822;2023-01-25T03:37:28;102653.88;;;20.92;32.56
62544;BME280;48597;49.030;1.822;2023-01-25T03:39:56;102643.66;;;20.91;32.58
62544;BME280;48597;49.030;1.822;2023-01-25T03:42:21;102641.22;;;20.89;32.55
62544;BME280;48597;49.030;1.822;2023-01-25T03:44:47;102644.50;;;20.88;32.75
62544;BME280;48597;49.030;1.822;2023-01-25T03:47:12;102642.06;;;20.86;32.59
62544;BME280;48597;49.030;1.822;2023-01-25T03:49:37;102639.19;;;20.86;32.68
62544;BME280;48597;49.030;1.822;2023-01-25T03:52:03;102640.00;;;20.87;32.70
62544;BME280;48597;49.030;1.822;2023-01-25T03:54:29;102632.63;;;20.86;32.63
62544;BME280;48597;49.030;1.822;2023-01-25T03:56:55;102629.38;;;20.84;32.75
62544;BME280;48597;49.030;1.822;2023-01-25T03:59:20;102639.59;;;20.85;32.58
62544;BME280;48597;49.030;1.822;2023-01-25T04:01:45;102639.59;;;20.85;32.61
62544;BME280;48597;49.030;1.822;2023-01-25T04:04:11;102628.94;;;20.89;32.52
62544;BME280;48597;49.030;1.822;2023-01-25T04:06:36;102634.28;;;20.87;32.62
62544;BME280;48597;49.030;1.822;2023-01-25T04:09:02;102633.84;;;20.88;32.67
62544;BME280;48597;49.030;1.822;2023-01-25T04:11:27;102630.59;;;20.90;32.61
62544;BME280;48597;49.030;1.822;2023-01-25T04:13:53;102631.81;;;20.89;32.48
62544;BME280;48597;49.030;1.822;2023-01-25T04:16:18;102633.81;;;20.92;32.38
62544;BME280;48597;49.030;1.822;2023-01-25T04:18:44;102635.88;;;20.91;32.60
62544;BME280;48597;49.030;1.822;2023-01-25T04:21:09;102637.50;;;20.92;32.65
62544;BME280;48597;49.030;1.822;2023-01-25T04:23:35;102641.19;;;20.93;32.47
62544;BME280;48597;49.030;1.822;2023-01-25T04:26:02;102639.97;;;20.94;32.43
62544;BME280;48597;49.030;1.822;2023-01-25T04:28:30;102635.03;;;20.94;32.59
62544;BME280;48597;49.030;1.822;2023-01-25T04:30:56;102628.50;;;20.94;32.53
62544;BME280;48597;49.030;1.822;2023-01-25T04:33:22;102635.47;;;20.93;32.39
62544;BME280;48597;49.030;1.822;2023-01-25T04:35:48;102635.44;;;20.96;32.35
62544;BME280;48597;49.030;1.822;2023-01-25T04:38:14;102629.72;;;20.96;32.53
62544;BME280;48597;49.030;1.822;2023-01-25T04:40:39;102628.91;;;20.96;32.50
62544;BME280;48597;49.030;1.822;2023-01-25T04:43:06;102631.34;;;20.97;32.53
62544;BME280;48597;49.030;1.822;2023-01-25T04:45:32;102636.25;;;21.00;32.55
62544;BME280;48597;49.030;1.822;2023-01-25T04:47:59;102632.16;;;20.98;32.45
62544;BME280;48597;49.030;1.822;2023-01-25T04:50:25;102641.19;;;20.96;32.52
62544;BME280;48597;49.030;1.822;2023-01-25T04:52:51;102632.19;;;20.94;32.31
62544;BME280;48597;49.030;1.822;2023-01-25T04:55:17;102635.47;;;20.93;32.50
62544;BME280;48597;49.030;1.822;2023-01-25T04:57:42;102630.59;;;20.90;32.50
62544;BME280;48597;49.030;1.822;2023-01-25T05:00:08;102632.22;;;20.87;32.78
62544;BME280;48597;49.030;1.822;2023-01-25T05:02:34;102639.19;;;20.86;32.66
62544;BME280;48597;49.030;1.822;2023-01-25T05:04:59;102629.38;;;20.84;32.48
62544;BME280;48597;49.030;1.822;2023-01-25T05:07:24;102632.63;;;20.82;32.44
62544;BME280;48597;49.030;1.822;2023-01-25T05:09:50;102627.31;;;20.81;32.61
62544;BME280;48597;49.030;1.822;2023-01-25T05:12:15;102626.50;;;20.80;32.70
62544;BME280;48597;49.030;1.822;2023-01-25T05:14:41;102626.50;;;20.80;32.52
62544;BME280;48597;49.030;1.822;2023-01-25T05:17:07;102622.81;;;20.80;32.25
62544;BME280;48597;49.030;1.822;2023-01-25T05:19:33;102611.75;;;20.78;32.61
62544;BME280;48597;49.030;1.822;2023-01-25T05:21:59;102613.81;;;20.78;32.55
62544;BME280;48597;49.030;1.822;2023-01-25T05:24:26;102611.75;;;20.78;32.72
62544;BME280;48597;49.030;1.822;2023-01-25T05:26:52;102609.31;;;20.80;32.65
62544;BME280;48597;49.030;1.822;2023-01-25T05:29:25;102615.03;;;20.80;32.71
62544;BME280;48597;49.030;1.822;2023-01-25T05:31:50;102610.94;;;20.78;32.56
62544;BME280;48597;49.030;1.822;2023-01-25T05:34:15;102606.03;;;20.78;32.66
62544;BME280;48597;49.030;1.822;2023-01-25T05:36:41;102603.97;;;20.79;32.71
62544;BME280;48597;49.030;1.822;2023-01-25T05:39:06;102602.75;;;20.80;32.62
62544;BME280;48597;49.030;1.822;2023-01-25T05:41:32;102604.81;;;20.79;32.59
62544;BME280;48597;49.030;1.822;2023-01-25T05:43:58;102603.56;;;20.80;32.62
62544;BME280;48597;49.030;1.822;2023-01-25T05:48:51;102597.84;;;20.80;32.63
62544;BME280;48597;49.030;1.822;2023-01-25T05:51:16;102599.47;;;20.81;32.50
62544;BME280;48597;49.030;1.822;2023-01-25T05:53:41;102603.16;;;20.85;32.62
62544;BME280;48597;49.030;1.822;2023-01-25T05:56:08;102597.84;;;20.84;32.56
62544;BME280;48597;49.030;1.822;2023-01-25T05:58:34;102603.56;;;20.87;32.37
62544;BME280;48597;49.030;1.822;2023-01-25T06:01:00;102611.75;;;20.85;32.58
62544;BME280;48597;49.030;1.822;2023-01-25T06:03:26;102608.47;;;20.87;32.45
62544;BME280;48597;49.030;1.822;2023-01-25T06:05:55;102610.94;;;20.88;32.69
62544;BME280;48597;49.030;1.822;2023-01-25T06:08:21;102608.06;;;20.88;32.74
62544;BME280;48597;49.030;1.822;2023-01-25T06:10:46;102601.09;;;20.89;32.66
62544;BME280;48597;49.030;1.822;2023-01-25T06:13:12;102605.19;;;20.88;32.63
62544;BME280;48597;49.030;1.822;2023-01-25T06:15:37;102606.00;;;20.89;32.69
62544;BME280;48597;49.030;1.822;2023-01-25T06:18:02;102616.25;;;20.90;32.51
62544;BME280;48597;49.030;1.822;2023-01-25T06:20:28;102613.38;;;20.86;32.49
62544;BME280;48597;49.030;1.822;2023-01-25T06:22:53;102606.84;;;20.86;32.66
62544;BME280;48597;49.030;1.822;2023-01-25T06:25:19;102603.16;;;20.85;32.36
62544;BME280;48597;49.030;1.822;2023-01-25T06:27:44;102592.09;;;20.84;32.56
62544;BME280;48597;49.030;1.822;2023-01-25T06:30:10;102597.84;;;20.80;32.72
62544;BME280;48597;49.030;1.822;2023-01-25T06:32:35;102605.22;;;20.78;32.47
62544;BME280;48597;49.030;1.822;2023-01-25T06:35:01;102600.34;;;20.75;32.69
62544;BME280;48597;49.030;1.822;2023-01-25T06:37:26;102610.16;;;20.74;32.81
62544;BME280;48597;49.030;1.822;2023-01-25T06:39:52;102606.06;;;20.71;32.84
62544;BME280;48597;49.030;1.822;2023-01-25T06:42:18;102602.41;;;20.67;32.84
62544;BME280;48597;49.030;1.822;2023-01-25T06:44:43;102611.03;;;20.63;32.85
62544;BME280;48597;49.030;1.822;2023-01-25T06:47:09;102604.06;;;20.61;32.91
62544;BME280;48597;49.030;1.822;2023-01-25T06:49:35;102609.38;;;20.59;33.24
62544;BME280;48597;49.030;1.822;2023-01-25T06:52:00;102599.56;;;20.56;32.90
62544;BME280;48597;49.030;1.822;2023-01-25T06:54:26;102594.25;;;20.55;33.02
62544;BME280;48597;49.030;1.822;2023-01-25T06:56:52;102593.03;;;20.52;32.96
62544;BME280;48597;49.030;1.822;2023-01-25T06:59:17;102594.69;;;20.50;32.85
62544;BME280;48597;49.030;1.822;2023-01-25T07:01:42;102591.84;;;20.50;32.92
62544;BME280;48597;49.030;1.822;2023-01-25T07:04:09;102591.00;;;20.49;32.94
62544;BME280;48597;49.030;1.822;2023-01-25T07:06:36;102597.16;;;20.48;32.98
62544;BME280;48597;49.030;1.822;2023-01-25T07:09:09;102591.00;;;20.46;33.01
62544;BME280;48597;49.030;1.822;2023-01-25T07:11:35;102588.56;;;20.44;32.92
62544;BME280;48597;49.030;1.822;2023-01-25T07:14:02;102588.97;;;20.43;32.96
62544;BME280;48597;49.030;1.822;2023-01-25T07:16:27;102588.16;;;20.42;32.97
62544;BME280;48597;49.030;1.822;2023-01-25T07:18:53;102591.84;;;20.43;32.82
62544;BME280;48597;49.030;1.822;2023-01-25T07:21:22;102587.75;;;20.44;33.31
62544;BME280;48597;49.030;1.822;2023-01-25T07:23:49;102588.97;;;20.39;33.34
62544;BME280;48597;49.030;1.822;2023-01-25T07:26:22;102586.53;;;20.34;33.43
62544;BME280;48597;49.030;1.822;2023-01-25T07:28:48;102592.25;;;20.30;33.59
62544;BME280;48597;49.030;1.822;2023-01-25T07:31:15;102588.97;;;20.28;33.79
62544;BME280;48597;49.030;1.822;2023-01-25T07:33:41;102600.88;;;20.23;33.59
62544;BME280;48597;49.030;1.822;2023-01-25T07:36:08;102591.03;;;20.24;33.64
62544;BME280;48597;49.030;1.822;2023-01-25T07:38:35;102591.47;;;20.23;33.69
62544;BME280;48597;49.030;1.822;2023-01-25T07:41:01;102592.69;;;20.22;33.80
62544;BME280;48597;49.030;1.822;2023-01-25T07:43:27;102587.38;;;20.20;33.67
62544;BME280;48597;49.030;1.822;2023-01-25T07:45:58;102587.38;;;20.17;33.63
62544;BME280;48597;49.030;1.822;2023-01-25T07:48:24;102585.72;;;20.16;33.73
62544;BME280;48597;49.030;1.822;2023-01-25T07:50:49;102591.03;;;20.14;33.84
62544;BME280;48597;49.030;1.822;2023-01-25T07:53:34;102587.81;;;20.12;33.73
62544;BME280;48597;49.030;1.822;2023-01-25T07:56:00;102595.16;;;20.09;33.91
62544;BME280;48597;49.030;1.822;2023-01-25T07:58:25;102593.13;;;20.06;33.85
62544;BME280;48597;49.030;1.822;2023-01-25T08:00:50;102594.75;;;20.04;33.84
62544;BME280;48597;49.030;1.822;2023-01-25T08:03:16;102600.06;;;20.02;33.79
62544;BME280;48597;49.030;1.822;2023-01-25T08:05:44;102602.09;;;20.01;33.98
62544;BME280;48597;49.030;1.822;2023-01-25T08:08:09;102598.03;;;19.98;33.95
62544;BME280;48597;49.030;1.822;2023-01-25T08:10:35;102591.91;;;19.96;33.98
62544;BME280;48597;49.030;1.822;2023-01-25T08:13:00;102598.03;;;19.95;34.01
62544;BME280;48597;49.030;1.822;2023-01-25T08:15:25;102601.31;;;19.93;34.09
62544;BME280;48597;49.030;1.822;2023-01-25T08:17:51;102597.63;;;19.93;34.15
62544;BME280;48597;49.030;1.822;2023-01-25T08:20:16;102593.94;;;19.92;33.99
62544;BME280;48597;49.030;1.822;2023-01-25T08:22:42;102598.84;;;19.92;34.13
62544;BME280;48597;49.030;1.822;2023-01-25T08:25:07;102592.72;;;19.90;34.14
62544;BME280;48597;49.030;1.822;2023-01-25T08:27:32;102585.34;;;19.89;34.09
62544;BME280;48597;49.030;1.822;2023-01-25T08:29:58;102582.88;;;19.87;34.21
62544;BME280;48597;49.030;1.822;2023-01-25T08:32:23;102584.13;;;19.86;34.18
62544;BME280;48597;49.030;1.822;2023-01-25T08:34:49;102589.06;;;19.86;34.15
62544;BME280;48597;49.030;1.822;2023-01-25T08:37:14;102583.72;;;19.84;34.28
62544;BME280;48597;49.030;1.822;2023-01-25T08:39:39;102584.13;;;19.83;34.16
62544;BME280;48597;49.030;1.822;2023-01-25T08:42:05;102582.09;;;19.80;34.41
62544;BME280;48597;49.030;1.822;2023-01-25T08:44:31;102587.81;;;19.80;34.44
62544;BME280;48597;49.030;1.822;2023-01-25T08:46:56;102578.81;;;19.78;34.36
62544;BME280;48597;49.030;1.822;2023-01-25T08:49:22;102582.09;;;19.76;34.40
62544;BME280;48597;49.030;1.822;2023-01-25T08:51:47;102582.50;;;19.75;34.39
62544;BME280;48597;49.030;1.822;2023-01-25T08:54:14;102583.31;;;19.72;34.33
62544;BME280;48597;49.030;1.822;2023-01-25T08:56:40;102583.72;;;19.70;34.40
62544;BME280;48597;49.030;1.822;2023-01-25T08:59:06;102581.28;;;19.69;34.37
62544;BME280;48597;49.030;1.822;2023-01-25T09:01:32;102576.78;;;19.68;34.51
62544;BME280;48597;49.030;1.822;2023-01-25T09:03:58;102574.31;;;19.66;34.42
62544;BME280;48597;49.030;1.822;2023-01-25T09:06:23;102579.22;;;19.66;34.35
62544;BME280;48597;49.030;1.822;2023-01-25T09:08:48;102573.91;;;19.64;34.47
62544;BME280;48597;49.030;1.822;2023-01-25T09:11:17;102572.69;;;19.65;34.61
62544;BME280;48597;49.030;1.822;2023-01-25T09:13:43;102572.69;;;19.65;34.61
62544;BME280;48597;49.030;1.822;2023-01-25T09:16:11;102574.31;;;19.62;34.54
62544;BME280;48597;49.030;1.822;2023-01-25T09:18:39;102573.50;;;19.62;34.55
62544;BME280;48597;49.030;1.822;2023-01-25T09:21:09;102569.81;;;19.61;34.59
62544;BME280;48597;49.030;1.822;2023-01-25T09:23:36;102570.63;;;19.62;34.53
62544;BME280;48597;49.030;1.822;2023-01-25T09:26:02;102566.97;;;19.61;34.51
62544;BME280;48597;49.030;1.822;2023-01-25T09:28:29;102569.44;;;19.59;34.67
62544;BME280;48597;49.030;1.822;2023-01-25T09:30:59;102561.66;;;19.60;34.64
62544;BME280;48597;49.030;1.822;2023-01-25T09:33:28;102560.84;;;19.59;34.68
62544;BME280;48597;49.030;1.822;2023-01-25T09:35:53;102563.72;;;19.59;34.68
62544;BME280;48597;49.030;1.822;2023-01-25T09:38:19;102562.06;;;19.58;34.67
62544;BME280;48597;49.030;1.822;2023-01-25T09:41:10;102560.84;;;19.59;34.68
62544;BME280;48597;49.030;1.822;2023-01-25T09:44:31;102564.94;;;19.58;34.69
62544;BME280;48597;49.030;1.822;2023-01-25T09:46:50;102573.53;;;19.58;34.77
62544;BME280;48597;49.030;1.822;2023-01-25T09:50:00;102575.56;;;19.58;34.62
62544;BME280;48597;49.030;1.822;2023-01-25T09:55:17;102570.66;;;19.58;34.87
62544;BME280;48597;49.030;1.822;2023-01-25T09:57:45;102570.25;;;19.56;34.82
62544;BME280;48597;49.030;1.822;2023-01-25T10:00:25;102563.31;;;19.57;34.82
62544;BME280;48597;49.030;1.822;2023-01-25T10:03:13;102561.25;;;19.58;34.88
62544;BME280;48597;49.030;1.822;2023-01-25T10:05:46;102568.19;;;19.57;34.83
62544;BME280;48597;49.030;1.822;2023-01-25T10:08:18;102563.31;;;19.57;34.98
62544;BME280;48597;49.030;1.822;2023-01-25T10:10:53;102562.47;;;19.57;35.02
62544;BME280;48597;49.030;1.822;2023-01-25T10:13:23;102560.84;;;19.56;34.96
62544;BME280;48597;49.030;1.822;2023-01-25T10:15:51;102574.75;;;19.57;35.04
62544;BME280;48597;49.030;1.822;2023-01-25T10:18:26;102578.81;;;19.56;34.92
62544;BME280;48597;49.030;1.822;2023-01-25T10:21:00;102570.25;;;19.56;35.04
62544;BME280;48597;49.030;1.822;2023-01-25T10:23:45;102563.69;;;19.56;34.99
62544;BME280;48597;49.030;1.822;2023-01-25T10:26:23;102563.69;;;19.56;34.96
62544;BME280;48597;49.030;1.822;2023-01-25T10:29:00;102563.69;;;19.56;34.95
62544;BME280;48597;49.030;1.822;2023-01-25T10:31:36;102562.06;;;19.55;34.96
62544;BME280;48597;49.030;1.822;2023-01-25T10:34:16;102568.59;;;19.55;35.06
62544;BME280;48597;49.030;1.822;2023-01-25T10:36:45;102566.97;;;19.54;35.04
62544;BME280;48597;49.030;1.822;2023-01-25T10:39:12;102569.00;;;19.54;34.90
62544;BME280;48597;49.030;1.822;2023-01-25T10:41:40;102563.69;;;19.52;34.92
62544;BME280;48597;49.030;1.822;2023-01-25T10:44:12;102566.56;;;19.52;35.07
62544;BME280;48597;49.030;1.822;2023-01-25T10:46:49;102568.59;;;19.52;34.91
62544;BME280;48597;49.030;1.822;2023-01-25T10:51:45;102572.28;;;19.52;34.96
62544;BME280;48597;49.030;1.822;2023-01-25T10:54:14;102569.00;;;19.54;34.96
62544;BME280;48597;49.030;1.822;2023-01-25T10:56:40;102569.41;;;19.52;35.00
62544;BME280;48597;49.030;1.822;2023-01-25T10:59:17;102564.50;;;19.53;35.08
62544;BME280;48597;49.030;1.822;2023-01-25T11:01:50;102568.59;;;19.52;34.99
62544;BME280;48597;49.030;1.822;2023-01-25T11:04:28;102562.06;;;19.55;35.07
62544;BME280;48597;49.030;1.822;2023-01-25T11:06:53;102553.88;;;19.53;34.98
62544;BME280;48597;49.030;1.822;2023-01-25T11:11:53;102537.16;;;19.55;35.11
62544;BME280;48597;49.030;1.822;2023-01-25T11:14:25;102531.41;;;19.55;35.00
62544;BME280;48597;49.030;1.822;2023-01-25T11:16:52;102526.53;;;19.56;35.09
62544;BME280;48597;49.030;1.822;2023-01-25T11:19:34;102525.28;;;19.57;34.95
62544;BME280;48597;49.030;1.822;2023-01-25T11:22:03;102526.13;;;19.57;34.97
62544;BME280;48597;49.030;1.822;2023-01-25T11:24:30;102515.50;;;19.58;35.11
62544;BME280;48597;49.030;1.822;2023-01-25T11:29:40;102500.38;;;19.57;35.02
62544;BME280;48597;49.030;1.822;2023-01-25T11:32:24;102500.78;;;19.59;34.94
62544;BME280;48597;49.030;1.822;2023-01-25T11:34:50;102498.75;;;19.60;35.03
62544;BME280;48597;49.030;1.822;2023-01-25T11:37:40;102482.81;;;19.59;34.90
62544;BME280;48597;49.030;1.822;2023-01-25T11:42:51;102475.41;;;19.61;35.08
62544;BME280;48597;49.030;1.822;2023-01-25T11:45:35;102454.56;;;19.61;35.13
62544;BME280;48597;49.030;1.822;2023-01-25T11:51:01;102445.63;;;19.59;35.22
62544;BME280;48597;49.030;1.822;2023-01-25T11:53:57;102444.41;;;19.60;35.01
62544;BME280;48597;49.030;1.822;2023-01-25T12:08:22;102403.13;;;19.57;34.95
62544;BME280;48597;49.030;1.822;2023-01-25T12:14:02;102392.91;;;19.56;35.06
62544;BME280;48597;49.030;1.822;2023-01-25T12:25:55;102363.50;;;19.56;34.94
62544;BME280;48597;49.030;1.822;2023-01-25T12:31:04;102356.53;;;19.57;35.03
62544;BME280;48597;49.030;1.822;2023-01-25T12:33:42;102339.38;;;19.57;34.90
62544;BME280;48597;49.030;1.822;2023-01-25T12:36:16;102332.44;;;19.58;35.00
62544;BME280;48597;49.030;1.822;2023-01-25T12:38:51;102334.06;;;19.59;35.01
62544;BME280;48597;49.030;1.822;2023-01-25T12:41:37;102323.44;;;19.59;34.96
62544;BME280;48597;49.030;1.822;2023-01-25T12:46:42;102325.03;;;19.60;35.01
62544;BME280;48597;49.030;1.822;2023-01-25T12:49:18;102326.69;;;19.61;34.97
62544;BME280;48597;49.030;1.822;2023-01-25T12:51:47;102315.22;;;19.61;34.95
62544;BME280;48597;49.030;1.822;2023-01-25T12:54:20;102314.81;;;19.63;35.11
62544;BME280;48597;49.030;1.822;2023-01-25T13:01:55;102300.13;;;19.65;34.95
62544;BME280;48597;49.030;1.822;2023-01-25T13:07:07;102284.56;;;19.66;35.06
62544;BME280;48597;49.030;1.822;2023-01-25T13:09:49;102286.63;;;19.65;34.99
62544;BME280;48597;49.030;1.822;2023-01-25T13:12:16;102280.09;;;19.65;34.95
62544;BME280;48597;49.030;1.822;2023-01-25T13:14:41;102274.38;;;19.65;35.10
62544;BME280;48597;49.030;1.822;2023-01-25T13:17:29;102276.00;;;19.66;34.99
62544;BME280;48597;49.030;1.822;2023-01-25T13:25:51;102258.03;;;19.65;35.02
62544;BME280;48597;49.030;1.822;2023-01-25T13:28:40;102246.56;;;19.65;34.82
62544;BME280;48597;49.030;1.822;2023-01-25T13:31:05;102247.00;;;19.63;34.98
62544;BME280;48597;49.030;1.822;2023-01-25T13:33:33;102244.13;;;19.63;34.98
62544;BME280;48597;49.030;1.822;2023-01-25T13:36:37;102241.28;;;19.63;34.73
62544;BME280;48597;49.030;1.822;2023-01-25T13:44:44;102236.78;;;19.62;34.77
62544;BME280;48597;49.030;1.822;2023-01-25T13:47:12;102234.72;;;19.63;34.98
62544;BME280;48597;49.030;1.822;2023-01-25T13:49:43;102243.31;;;19.63;34.90
62544;BME280;48597;49.030;1.822;2023-01-25T13:52:22;102231.88;;;19.63;34.90
62544;BME280;48597;49.030;1.822;2023-01-25T13:54:49;102230.25;;;19.62;34.97
62544;BME280;48597;49.030;1.822;2023-01-25T13:57:25;102233.50;;;19.64;34.85
62544;BME280;48597;49.030;1.822;2023-01-25T14:00:06;102229.81;;;19.63;34.92
62544;BME280;48597;49.030;1.822;2023-01-25T14:02:33;102229.81;;;19.63;34.91
62544;BME280;48597;49.030;1.822;2023-01-25T14:04:59;102231.47;;;19.65;34.96
62544;BME280;48597;49.030;1.822;2023-01-25T14:07:34;102224.50;;;19.66;34.92
62544;BME280;48597;49.030;1.822;2023-01-25T14:10:06;102218.78;;;19.66;34.88
62544;BME280;48597;49.030;1.822;2023-01-25T14:12:40;102213.88;;;19.66;35.01
62544;BME280;48597;49.030;1.822;2023-01-25T14:15:23;102226.16;;;19.67;34.86
62544;BME280;48597;49.030;1.822;2023-01-25T14:20:33;102219.19;;;19.68;34.77
62544;BME280;48597;49.030;1.822;2023-01-25T14:22:59;102217.97;;;19.69;34.85